Butts AAF (Fort Carson) Air Field
KFCS : now visible

Airfield :











YOU CAN JOIN US ON...

 
LOGIN :

Register | Disclaimer

   EN    FR    IT 

 









Legend :    VFR   Marginal VFR   IFR   Intensive IFR   Very Intensive IFR
Visi :
Ceiling :
>= 8 km
>= 3000ft
5 to 8 km
1000 to 3000 ft
1500m to 5 km
500 to 1000 ft
800 to 1500m
200 to 500 ft
< 800m
< 200 ft
Symbols :   Thunderstorms  Fog  Heavy snow  Heavy precipitations  Wind > 20 kt






- Airport Elevation : 5838 ft


KFCS - Butts AAF (Fort Carson) Air Field

CURRENT METAR :
  • 280358Z AUTO 35009KT 10SM FEW085 SCT110 16/10 A3018 RMK AO2 SLP166 T01640096 $

EXPIRED METARs :
  • 280258Z AUTO 33007KT 10SM BKN100 OVC120 15/11 A3015 RMK AO2 RAE27DZB27E30 SLP165 P0001 60001 T01460108 50027 $
  • 280230Z AUTO 01007KT 10SM SCT060 BKN080 15/11 A3016 RMK AO2 RAE27DZB27E30 SLP173 $
  • 280158Z AUTO 36019KT M R31/P6000FT -RA OVC080 16/10 A3016 RMK AO2 RAE15DZB15E25DZB33E35RAB35 SLP177 P0000 T01620103 $
  • 280133Z AUTO 34015KT 10SM -DZ FEW050 BKN085 17/10 A3015 RMK AO2 LTG DSNT NE RAE15DZB15E25DZB33 SLP174 $

TAF TAF KFCS
Valid from the 27 at 21:00 until the 29 at 03:00 UTC


272100Z 2721/2903 VRB06KT 9999 BKN100 QNH3003INS
BECMG 2800/2801 VRB06KT 9000 -SHRA SCT050 QNH3011INS
TEMPO 2801/2806 VRB10G18KT -TSRA BKN050CB
BECMG 2807/2808 VRB06KT 9999 NSW FEW050 QNH3019INS
BECMG 2818/2819 VRB06KT 9000 -SHRA SCT055 QNH3029INS
BECMG 2822/2823 VRB06KT 9999 NSW FEW065 QNH3026INS TX27/2722Z TN11/2810Z
KZDV FIR / North America



MET'MAP, your aeronautical weather chart ! - Copyright ORBIFLY December 2007 - Disclaimer

ORBIFLY MET'MAP TEAM :

Programming & Development : Alexandra Zaïnal
Concept & original design : Baudouin d'Aumeries
Assistance for programming : Marc-Olivier Méhu
Technical & hardware support : Manuel Goepfert

Contact : metmap@orbifly.com




SOURCES & CREDITS :

   NOAA       Earth
Advisory